Time;durP1;ratioP1;P1;durP2;ratioP2;P2;SDS_P1;SDS_P2;PMS_P1;PMS_P2;Temp;Humidity;BMP_temperature;BMP_pressure;BME280_temperature;BME280_humidity;BME280_pressure;Samples;Min_cycle;Max_cycle;Signal;HPM_P1;HPM_P2
2024/01/02 00:00:51;;;;;;;2.28;1.52;;;;;;;5.84;56.26;94595.94;6156351;23;20103;-87
2024/01/02 00:03:16;;;;;;;3.00;1.33;;;;;;;5.92;55.33;94581.41;6133948;23;20016;-86
2024/01/02 00:05:41;;;;;;;4.00;1.42;;;;;;;5.90;55.65;94588.53;6156223;23;20072;-89
2024/01/02 00:08:07;;;;;;;2.30;1.40;;;;;;;6.11;54.74;94569.94;6132230;23;20044;-86
2024/01/02 00:13:08;;;;;;;2.83;1.20;;;;;;;6.09;53.95;94559.78;6180569;23;20025;-86
2024/01/02 00:15:33;;;;;;;2.35;1.20;;;;;;;6.09;54.47;94557.19;6157971;23;20011;-86
2024/01/02 00:17:58;;;;;;;4.68;1.13;;;;;;;6.36;52.73;94555.16;6109878;23;19997;-85
2024/01/02 00:20:24;;;;;;;1.75;1.23;;;;;;;6.26;53.23;94555.38;6134119;23;20005;-87
2024/01/02 00:22:49;;;;;;;1.75;1.10;;;;;;;6.14;53.23;94554.13;6109656;23;20032;-86
2024/01/02 00:25:15;;;;;;;1.85;1.10;;;;;;;6.00;53.66;94535.00;6159220;23;20071;-87
2024/01/02 00:30:07;;;;;;;2.00;1.00;;;;;;;6.31;52.85;94534.22;6181772;23;20021;-87
2024/01/02 00:32:33;;;;;;;1.60;1.02;;;;;;;6.10;53.75;94516.72;6133848;23;20017;-86
2024/01/02 00:35:03;;;;;;;2.35;1.30;;;;;;;6.31;52.92;94500.66;6134660;23;20009;-86
2024/01/02 00:37:28;;;;;;;1.83;1.23;;;;;;;5.75;55.15;94503.22;6158601;23;20001;-86
2024/01/02 01:02:57;;;;;;;1.88;1.05;;;;;;;5.81;53.81;94466.47;6179297;23;20126;-86
2024/01/02 01:54:04;;;;;;;1.92;0.80;;;;;;;6.24;51.27;94423.88;6199816;23;20073;-86
2024/01/02 01:56:30;;;;;;;1.88;0.75;;;;;;;6.34;51.15;94433.16;6186141;23;20043;-86
2024/01/02 02:24:50;;;;;;;0.88;0.57;;;;;;;6.56;49.32;94395.41;6182711;23;20028;-86
2024/01/02 02:27:20;;;;;;;1.13;0.70;;;;;;;6.56;50.05;94378.09;6157001;23;20013;-86
2024/01/02 02:40:09;;;;;;;1.52;0.77;;;;;;;6.55;50.04;94373.09;6208324;23;20020;-86
2024/01/02 03:00:34;;;;;;;1.52;0.85;;;;;;;6.45;50.12;94344.94;6206560;23;20027;-86
2024/01/02 03:03:01;;;;;;;1.58;0.80;;;;;;;6.48;50.76;94365.25;6163286;23;20009;-86
2024/01/02 03:18:17;;;;;;;1.13;0.70;;;;;;;5.77;51.71;94334.38;6183063;23;20025;-86
2024/01/02 03:20:42;;;;;;;3.15;0.98;;;;;;;5.95;52.06;94346.22;6134096;23;20040;-86
2024/01/02 03:23:09;;;;;;;2.00;0.93;;;;;;;6.13;51.49;94315.81;6159068;23;20071;-86
2024/01/02 03:41:07;;;;;;;1.92;0.77;;;;;;;6.44;50.97;94331.22;6209436;23;20013;-86
2024/01/02 03:43:34;;;;;;;2.03;0.90;;;;;;;6.50;50.14;94321.19;6188998;23;20024;-86
2024/01/02 03:46:00;;;;;;;1.48;0.60;;;;;;;6.37;49.71;94304.47;6187726;23;20030;-86
2024/01/02 03:48:25;;;;;;;1.98;1.00;;;;;;;6.52;50.43;94301.13;6187394;23;20036;-87
2024/01/02 03:50:51;;;;;;;0.90;0.52;;;;;;;6.57;49.02;94293.69;6164793;23;20063;-87
2024/01/02 03:53:16;;;;;;;0.90;0.60;;;;;;;6.56;48.21;94295.44;6189576;23;20013;-86
2024/01/02 04:24:08;;;;;;;1.60;0.60;;;;;;;6.93;48.04;94298.97;6212846;23;20024;-86
2024/01/02 04:26:34;;;;;;;2.00;0.70;;;;;;;6.77;48.67;94312.06;6163440;23;20015;-86
2024/01/02 04:49:37;;;;;;;1.70;0.63;;;;;;;6.69;48.53;94271.59;6220169;23;20012;-86
2024/01/02 04:52:03;;;;;;;0.90;0.50;;;;;;;6.69;48.29;94253.50;6218300;23;20062;-86
2024/01/02 04:54:31;;;;;;;1.45;0.40;;;;;;;6.46;48.75;94227.72;6218227;23;20036;-86
2024/01/02 05:04:36;;;;;;;0.80;0.60;;;;;;;6.97;47.43;94247.72;6209729;23;20021;-86
2024/01/02 05:07:02;;;;;;;0.50;0.50;;;;;;;6.83;48.52;94233.81;6188401;23;20035;-86
2024/01/02 05:09:29;;;;;;;0.63;0.40;;;;;;;6.73;48.79;94243.59;6188220;23;20035;-87
2024/01/02 05:40:13;;;;;;;1.50;0.43;;;;;;;6.52;47.64;94126.28;6186351;23;20060;-86
2024/01/02 05:42:38;;;;;;;2.42;0.52;;;;;;;6.72;48.67;94133.47;6138241;23;20016;-86
2024/01/02 05:45:04;;;;;;;0.90;0.52;;;;;;;6.73;49.35;94122.16;6187241;23;20099;-86
2024/01/02 05:52:30;;;;;;;1.30;0.65;;;;;;;7.01;48.71;94146.34;6210341;23;20316;-86
2024/01/02 05:57:30;;;;;;;0.88;0.50;;;;;;;6.91;49.59;94122.56;6181788;23;20020;-86
2024/01/02 05:59:59;;;;;;;1.15;0.50;;;;;;;6.93;49.51;94135.28;6133645;23;20041;-86
2024/01/02 06:02:25;;;;;;;1.95;0.60;;;;;;;6.75;51.50;94130.53;6133313;23;20096;-86
2024/01/02 07:20:44;;;;;;;1.00;0.40;;;;;;;6.61;46.40;94230.34;6208082;23;20102;-86
2024/01/02 07:46:35;;;;;;;14.15;6.55;;;;;;;7.29;45.91;94187.03;6210282;22;20052;-87
2024/01/02 07:49:01;;;;;;;7.72;3.65;;;;;;;7.59;45.66;94202.47;6218563;23;20012;-87
2024/01/02 07:56:36;;;;;;;51.97;31.30;;;;;;;7.73;45.15;94186.09;6245414;22;20027;-87
2024/01/02 07:59:02;;;;;;;42.17;24.27;;;;;;;7.99;45.13;94192.47;6194200;23;20008;-86
2024/01/02 08:01:28;;;;;;;9.15;5.45;;;;;;;8.15;44.68;94183.66;6193529;23;20011;-86
2024/01/02 08:03:53;;;;;;;11.95;7.60;;;;;;;7.96;45.68;94167.75;6193841;23;20077;-87
2024/01/02 08:14:04;;;;;;;14.80;10.05;;;;;;;8.27;45.37;94171.78;6215250;23;20020;-87
2024/01/02 08:16:33;;;;;;;8.52;5.60;;;;;;;8.54;45.13;94190.13;6193757;23;20015;-87
2024/01/02 08:18:59;;;;;;;2.78;2.08;;;;;;;8.56;45.50;94188.91;6218744;23;20024;-87
2024/01/02 08:21:26;;;;;;;2.05;1.45;;;;;;;8.65;45.23;94183.59;6218821;23;20039;-86
2024/01/02 08:23:52;;;;;;;1.23;0.82;;;;;;;8.67;44.83;94181.63;6219082;23;20004;-86
2024/01/02 08:39:14;;;;;;;1.48;1.10;;;;;;;8.51;49.02;94224.16;6184520;23;20016;-86
2024/01/02 08:41:39;;;;;;;2.17;1.00;;;;;;;8.73;47.18;94235.28;6188305;23;20020;-87
2024/01/02 08:44:05;;;;;;;1.58;1.10;;;;;;;8.73;48.12;94235.28;6188086;23;20083;-86
2024/01/02 09:05:08;;;;;;;1.38;0.88;;;;;;;8.92;44.57;94228.63;6209680;23;20047;-86
2024/01/02 09:07:35;;;;;;;0.80;0.70;;;;;;;9.00;45.49;94234.47;6162926;23;20016;-87
2024/01/02 09:10:00;;;;;;;1.67;0.70;;;;;;;9.13;44.66;94238.91;6187929;23;20012;-86
2024/01/02 09:12:27;;;;;;;0.70;0.50;;;;;;;9.12;44.11;94213.13;6187974;23;20016;-86
2024/01/02 09:14:52;;;;;;;1.15;0.77;;;;;;;8.97;44.57;94239.22;6187982;23;20012;-86
2024/01/02 09:26:52;;;;;;;2.10;0.90;;;;;;;9.05;43.79;94222.72;6172835;23;20036;-86
2024/01/02 09:42:45;;;;;;;2.30;1.20;;;;;;;9.26;43.22;94240.75;6210615;23;20047;-85
2024/01/02 09:45:33;;;;;;;1.30;1.00;;;;;;;9.24;45.32;94247.16;6158618;23;20075;-87
2024/01/02 09:48:17;;;;;;;1.85;1.20;;;;;;;9.21;44.00;94250.91;6157736;23;20013;-85
2024/01/02 09:51:01;;;;;;;1.42;1.10;;;;;;;9.36;43.66;94241.19;6157844;23;20092;-87
2024/01/02 09:53:39;;;;;;;1.90;0.80;;;;;;;9.39;44.08;94243.41;6158109;23;20008;-85
2024/01/02 09:56:21;;;;;;;1.70;1.20;;;;;;;9.38;43.74;94246.97;6157239;23;20007;-86
2024/01/02 09:59:19;;;;;;;1.35;0.90;;;;;;;9.21;43.48;94237.94;6156591;23;20080;-85
2024/01/02 10:01:50;;;;;;;1.35;0.88;;;;;;;9.43;43.49;94237.84;6100915;23;20009;-85
2024/01/02 10:04:38;;;;;;;;;;;;;;;9.12;43.15;94234.72;6157296;23;20009;-85
2024/01/02 10:07:22;;;;;;;1.40;1.08;;;;;;;9.70;43.43;94223.94;6141456;23;19955;-86
2024/01/02 10:10:08;;;;;;;1.25;0.77;;;;;;;9.70;44.60;94215.34;6157277;23;20039;-85
2024/01/02 10:13:02;;;;;;;0.70;0.65;;;;;;;9.62;43.60;94198.16;6156948;23;20009;-86
2024/01/02 10:15:28;;;;;;;1.60;0.90;;;;;;;9.84;44.42;94210.97;6157561;23;20007;-87
2024/01/02 10:18:32;;;;;;;2.45;0.80;;;;;;;9.90;45.97;94210.16;6157222;23;20087;-86
2024/01/02 10:21:31;;;;;;;1.00;0.85;;;;;;;9.98;47.20;94203.00;6156896;23;20068;-86
2024/01/02 10:24:40;;;;;;;0.90;0.70;;;;;;;9.98;48.92;94191.81;6157078;23;20052;-86
2024/01/02 10:27:09;;;;;;;1.00;0.85;;;;;;;10.14;49.15;94181.00;6156406;23;20001;-87
2024/01/02 12:03:55;;;;;;;1.45;0.80;;;;;;;12.38;37.85;93934.63;6195962;23;20031;-85
2024/01/02 12:06:48;;;;;;;4.10;2.90;;;;;;;12.53;37.31;93935.03;6156463;23;20047;-85
2024/01/02 12:09:17;;;;;;;2.15;0.70;;;;;;;12.91;36.72;93937.31;6157157;23;20019;-85
2024/01/02 12:12:25;;;;;;;1.50;0.70;;;;;;;12.83;37.31;93929.81;6157213;23;20009;-85
2024/01/02 12:15:15;;;;;;;1.30;0.75;;;;;;;12.82;37.80;93930.81;6098192;23;20006;-86
2024/01/02 12:17:58;;;;;;;2.73;0.77;;;;;;;13.23;37.48;93934.44;6157093;23;20005;-86
2024/01/02 12:28:06;;;;;;;0.80;0.60;;;;;;;13.35;36.51;93934.47;6189521;23;20028;-86
2024/01/02 12:30:49;;;;;;;1.65;0.70;;;;;;;13.22;34.54;93932.84;6163167;23;20035;-85
2024/01/02 12:33:34;;;;;;;0.60;0.55;;;;;;;13.24;34.74;93937.84;6188075;23;20061;-86
2024/01/02 12:36:12;;;;;;;0.70;0.43;;;;;;;13.63;33.33;93946.06;6187725;23;20012;-85
2024/01/02 12:38:53;;;;;;;1.10;0.50;;;;;;;13.28;32.64;93944.19;6187196;23;20004;-85
2024/01/02 12:43:59;;;;;;;1.20;0.50;;;;;;;13.07;34.58;93917.59;6212675;23;20024;-85
2024/01/02 12:46:49;;;;;;;0.55;0.43;;;;;;;13.29;34.92;93945.78;6162937;23;20067;-85
2024/01/02 12:49:28;;;;;;;1.30;0.52;;;;;;;13.27;33.55;93934.78;6187422;23;20008;-85
2024/01/02 12:52:02;;;;;;;0.43;0.40;;;;;;;13.39;32.30;93930.38;6212328;23;20012;-86
2024/01/02 12:54:28;;;;;;;0.80;0.60;;;;;;;13.56;31.89;93935.72;6186175;23;20036;-85
2024/01/02 12:57:04;;;;;;;0.63;0.52;;;;;;;12.97;33.31;93932.22;6187629;23;20012;-85
2024/01/02 12:59:35;;;;;;;1.05;0.70;;;;;;;13.26;32.41;93930.56;6187556;23;20000;-85
2024/01/02 13:02:07;;;;;;;0.95;0.57;;;;;;;13.16;33.01;93918.06;6187021;23;20001;-86
2024/01/02 13:04:38;;;;;;;0.70;0.47;;;;;;;12.91;34.19;93928.69;6186162;23;20009;-86
2024/01/02 13:09:40;;;;;;;1.13;0.50;;;;;;;12.50;35.34;93938.06;6210850;23;20012;-86
2024/01/02 13:12:11;;;;;;;1.13;0.60;;;;;;;12.43;35.33;93927.75;6187255;23;20016;-86
2024/01/02 13:14:36;;;;;;;0.75;0.50;;;;;;;12.50;35.81;93933.66;6187548;23;20028;-86
2024/01/02 13:17:05;;;;;;;1.15;0.60;;;;;;;12.40;36.47;93925.56;6163236;23;20012;-86
2024/01/02 13:21:57;;;;;;;0.60;0.60;;;;;;;12.50;37.35;93933.66;6184063;23;20026;-86
2024/01/02 13:24:24;;;;;;;0.70;0.60;;;;;;;12.39;38.37;93915.34;6163096;23;20005;-86
2024/01/02 13:26:51;;;;;;;1.10;0.68;;;;;;;12.49;37.71;93915.66;6163311;23;20067;-86
2024/01/02 13:29:18;;;;;;;1.15;0.60;;;;;;;12.27;37.64;93899.66;6213013;23;20031;-85
2024/01/02 13:31:47;;;;;;;1.13;0.73;;;;;;;12.00;38.81;93913.03;6187083;23;20017;-86
2024/01/02 13:34:29;;;;;;;2.05;0.70;;;;;;;12.07;40.16;93905.09;6188361;23;20011;-86
2024/01/02 13:36:55;;;;;;;1.20;0.80;;;;;;;11.71;41.06;93897.06;6162760;23;20000;-86
2024/01/02 13:39:41;;;;;;;1.30;0.70;;;;;;;11.46;41.48;93915.34;6162726;23;20092;-85
2024/01/02 13:42:07;;;;;;;0.88;0.70;;;;;;;11.63;41.65;93907.78;6177072;23;20079;-86
2024/01/02 13:44:35;;;;;;;2.35;0.90;;;;;;;11.86;41.92;93893.28;6186672;23;20021;-86
2024/01/02 13:47:02;;;;;;;1.55;0.70;;;;;;;11.95;42.65;93897.22;6187293;23;20004;-87
2024/01/02 13:49:51;;;;;;;2.60;0.70;;;;;;;11.59;42.87;93888.38;6187049;23;20115;-86
2024/01/02 13:52:30;;;;;;;1.48;0.80;;;;;;;11.63;43.78;93883.53;6213011;23;20017;-86
2024/01/02 13:54:56;;;;;;;1.20;0.80;;;;;;;11.86;42.73;93885.47;6187210;23;20001;-86
2024/01/02 13:57:25;;;;;;;1.45;1.00;;;;;;;12.05;43.19;93874.06;6186758;23;20011;-86
2024/01/02 13:59:51;;;;;;;1.40;1.20;;;;;;;12.25;42.05;93891.28;6187332;23;20036;-86
2024/01/02 14:02:19;;;;;;;1.50;1.10;;;;;;;12.24;40.15;93894.88;6187450;23;20039;-86
2024/01/02 14:04:48;;;;;;;1.77;1.23;;;;;;;12.25;39.61;93871.19;6162575;23;20032;-86
2024/01/02 14:07:14;;;;;;;1.80;1.20;;;;;;;12.24;39.48;93874.03;6137193;23;20009;-86
2024/01/02 14:09:44;;;;;;;2.03;1.25;;;;;;;12.27;39.05;93890.03;6136806;23;20012;-85
2024/01/02 14:14:43;;;;;;;2.17;1.00;;;;;;;12.25;39.56;93888.66;6209340;23;20293;-86
2024/01/02 14:17:11;;;;;;;1.50;1.00;;;;;;;12.38;39.44;93888.50;6186351;23;20234;-85
2024/01/02 14:19:43;;;;;;;1.67;0.80;;;;;;;12.37;40.29;93888.72;6185924;23;20009;-86
2024/01/02 14:22:38;;;;;;;3.22;0.88;;;;;;;12.30;41.84;93886.19;6185746;23;20004;-86
2024/01/02 14:25:18;;;;;;;0.75;0.70;;;;;;;12.32;41.92;93881.56;6186601;23;20008;-86
2024/01/02 14:28:02;;;;;;;2.05;0.70;;;;;;;12.31;43.05;93882.56;6161912;23;20013;-86
2024/01/02 14:30:36;;;;;;;0.68;0.68;;;;;;;12.15;43.49;93880.56;6186544;23;20011;-87
2024/01/02 14:33:20;;;;;;;1.08;0.80;;;;;;;12.01;43.84;93891.13;6200688;23;20035;-87
2024/01/02 14:36:14;;;;;;;1.25;0.80;;;;;;;11.92;44.50;93895.88;6186050;23;20013;-86
2024/01/02 14:39:05;;;;;;;1.63;0.90;;;;;;;12.02;43.78;93890.13;6185703;23;20005;-86
2024/01/02 14:41:40;;;;;;;1.50;0.93;;;;;;;12.20;40.46;93893.72;6185799;23;20008;-86
2024/01/02 14:44:14;;;;;;;1.60;1.00;;;;;;;11.96;43.49;93895.44;6185864;23;20038;-86
2024/01/02 14:47:10;;;;;;;1.90;1.30;;;;;;;12.27;42.54;93886.63;6186020;23;20048;-86
2024/01/02 14:49:37;;;;;;;3.80;1.17;;;;;;;11.80;43.83;93888.97;6185948;23;20072;-86
2024/01/02 14:52:29;;;;;;;1.88;1.15;;;;;;;11.80;43.26;93878.53;6161232;23;20013;-86
2024/01/02 14:55:16;;;;;;;2.25;1.13;;;;;;;11.34;45.00;93878.00;6184812;23;20009;-86
2024/01/02 14:57:52;;;;;;;2.25;1.40;;;;;;;11.45;45.13;93871.31;6185606;23;20055;-86
2024/01/02 15:00:24;;;;;;;1.92;1.20;;;;;;;11.83;43.98;93865.09;6185954;23;20008;-86
2024/01/02 15:03:20;;;;;;;1.70;1.25;;;;;;;10.64;45.77;93858.19;6186859;23;20000;-86
2024/01/02 15:06:04;;;;;;;1.67;1.10;;;;;;;10.97;45.90;93849.31;6185981;23;20008;-86
2024/01/02 15:09:07;;;;;;;1.60;1.05;;;;;;;11.33;45.15;93851.19;6162091;23;20020;-85
2024/01/02 15:11:39;;;;;;;1.33;1.00;;;;;;;11.46;44.94;93862.47;6186467;23;20022;-86
2024/01/02 15:14:25;;;;;;;1.55;0.80;;;;;;;11.79;45.53;93843.09;6186421;23;20008;-85
2024/01/02 15:17:13;;;;;;;2.67;0.60;;;;;;;11.17;45.70;93845.75;6186938;23;20059;-86
2024/01/02 15:20:08;;;;;;;1.25;0.82;;;;;;;10.71;47.47;93842.53;6187422;23;20011;-86
2024/01/02 15:22:46;;;;;;;1.10;0.80;;;;;;;11.16;48.68;93860.56;6187672;23;20094;-86
2024/01/02 15:25:38;;;;;;;2.25;0.80;;;;;;;11.27;48.38;93853.84;6188100;23;20008;-86
2024/01/02 15:28:14;;;;;;;1.73;1.00;;;;;;;11.07;49.90;93848.84;6187462;23;19993;-86
2024/01/02 15:30:46;;;;;;;1.83;0.80;;;;;;;11.02;50.37;93851.28;6163864;23;20004;-86
2024/01/02 15:33:27;;;;;;;1.33;0.90;;;;;;;10.90;51.29;93870.19;6187685;23;20017;-85
2024/01/02 15:35:56;;;;;;;2.03;0.90;;;;;;;10.93;51.31;93874.97;6165481;23;20091;-85
2024/01/02 15:38:28;;;;;;;1.00;0.90;;;;;;;10.86;51.70;93863.81;6188234;23;20080;-86
2024/01/02 15:40:54;;;;;;;1.73;0.95;;;;;;;10.71;52.42;93869.31;6188129;23;20009;-86
2024/01/02 15:43:23;;;;;;;1.20;1.00;;;;;;;10.79;52.38;93863.06;6163182;23;20023;-86
2024/01/02 15:46:02;;;;;;;1.70;0.93;;;;;;;11.01;51.63;93873.13;6188292;23;20015;-86
2024/01/02 15:48:47;;;;;;;1.63;1.00;;;;;;;10.98;52.02;93868.31;6187904;23;20000;-85
2024/01/02 15:51:22;;;;;;;2.03;1.30;;;;;;;10.83;52.40;93879.81;6187861;23;20067;-85
2024/01/02 15:53:52;;;;;;;2.05;1.13;;;;;;;10.68;53.33;93881.94;6188718;23;20015;-85
2024/01/02 15:56:29;;;;;;;2.00;1.25;;;;;;;10.82;53.28;93878.25;6188310;23;20008;-86
2024/01/02 15:59:06;;;;;;;1.60;1.00;;;;;;;10.89;53.74;93886.81;6188138;23;19997;-86
2024/01/02 16:01:33;;;;;;;1.55;1.15;;;;;;;10.90;53.73;93883.19;6188556;23;20004;-86
2024/01/02 16:04:21;;;;;;;1.30;1.10;;;;;;;10.81;53.82;93887.03;6187918;23;20092;-86
2024/01/02 16:07:12;;;;;;;1.75;1.30;;;;;;;10.44;54.69;93893.91;6187097;23;20057;-86
2024/01/02 16:09:59;;;;;;;2.20;1.38;;;;;;;10.57;54.43;93904.22;6188373;23;20016;-85
2024/01/02 16:12:55;;;;;;;3.08;1.35;;;;;;;10.75;53.36;93903.50;6188005;23;20009;-86
2024/01/02 16:15:51;;;;;;;1.55;1.33;;;;;;;10.64;53.94;93914.56;6155969;23;20009;-86
2024/01/02 16:18:29;;;;;;;2.45;2.00;;;;;;;10.68;54.15;93911.38;6187804;23;20007;-86
2024/01/02 16:21:18;;;;;;;2.00;1.70;;;;;;;10.63;54.62;93915.59;6187742;23;20008;-86
2024/01/02 16:23:58;;;;;;;2.88;1.58;;;;;;;10.61;54.73;93922.81;6188429;23;20016;-85
2024/01/02 16:26:37;;;;;;;10.10;6.95;;;;;;;10.46;54.67;93923.88;6187063;23;20004;-86
2024/01/02 16:29:32;;;;;;;2.95;2.30;;;;;;;10.26;56.16;93925.75;6186823;23;20092;-86
2024/01/02 16:32:07;;;;;;;3.40;1.35;;;;;;;10.08;57.02;93918.63;6187795;23;20080;-85
2024/01/02 16:34:59;;;;;;;2.78;1.60;;;;;;;10.14;57.02;93923.00;6187790;23;20079;-85
2024/01/02 16:37:42;;;;;;;3.70;2.05;;;;;;;10.36;56.67;93915.75;6187415;23;20004;-85
2024/01/02 16:40:10;;;;;;;3.03;2.70;;;;;;;10.44;54.72;93899.09;6187516;23;20013;-86
2024/01/02 16:42:39;;;;;;;2.72;2.20;;;;;;;10.34;55.11;93904.75;6186995;23;20039;-86
2024/01/02 16:45:06;;;;;;;2.05;1.77;;;;;;;10.37;55.35;93904.31;6162253;23;20012;-85
2024/01/02 16:47:33;;;;;;;2.30;1.88;;;;;;;10.23;56.20;93895.00;6186214;23;20001;-86
2024/01/02 16:49:59;;;;;;;3.08;1.80;;;;;;;10.51;54.52;93889.47;6137894;23;20016;-85
2024/01/02 16:52:30;;;;;;;2.72;1.60;;;;;;;10.55;54.58;93885.44;6187392;23;20001;-86
2024/01/02 16:54:57;;;;;;;4.22;2.40;;;;;;;10.44;55.37;93870.50;6163554;23;20016;-85
2024/01/02 16:57:26;;;;;;;2.97;2.30;;;;;;;9.38;58.56;93878.47;6187274;23;20016;-85
2024/01/02 16:59:59;;;;;;;2.97;2.63;;;;;;;10.00;57.20;93849.53;6187204;23;20020;-85
2024/01/02 17:02:25;;;;;;;3.38;2.60;;;;;;;9.61;58.28;93842.69;6186293;23;20008;-86
2024/01/02 17:04:53;;;;;;;5.65;2.60;;;;;;;9.55;59.68;93859.88;6162420;23;20019;-85
2024/01/02 17:07:21;;;;;;;3.22;2.40;;;;;;;9.81;58.82;93840.81;6187236;23;20004;-86
2024/01/02 17:09:50;;;;;;;3.53;2.60;;;;;;;9.82;58.65;93833.81;6186868;23;20088;-85
2024/01/02 17:12:16;;;;;;;3.60;2.65;;;;;;;9.77;59.00;93824.84;6185918;23;20004;-86
2024/01/02 17:14:45;;;;;;;4.35;2.83;;;;;;;9.83;58.95;93825.03;6187311;23;20004;-85
2024/01/02 17:17:11;;;;;;;4.07;2.78;;;;;;;10.10;58.41;93808.31;6187150;23;20001;-86
2024/01/02 17:19:38;;;;;;;2.60;2.28;;;;;;;9.95;58.29;93807.78;6186751;23;20092;-86
2024/01/02 17:22:05;;;;;;;2.92;2.10;;;;;;;9.97;58.57;93816.16;6186210;23;20035;-86
2024/01/02 17:24:31;;;;;;;3.15;2.22;;;;;;;10.14;58.43;93806.09;6162126;23;20009;-86
2024/01/02 17:26:56;;;;;;;2.88;2.58;;;;;;;10.28;57.90;93804.19;6136905;23;20011;-86
2024/01/02 17:29:22;;;;;;;4.15;2.25;;;;;;;10.28;58.22;93810.22;6187204;23;20063;-86
2024/01/02 17:31:48;;;;;;;2.65;2.15;;;;;;;10.22;58.60;93807.63;6161588;23;20011;-86
2024/01/02 17:34:14;;;;;;;2.08;1.88;;;;;;;10.08;59.27;93812.91;6184504;23;20016;-85
2024/01/02 17:36:40;;;;;;;2.65;1.70;;;;;;;10.09;59.54;93791.13;6160518;23;20102;-86
2024/01/02 17:39:09;;;;;;;5.22;2.25;;;;;;;10.21;58.79;93796.47;6160215;23;20008;-85
2024/01/02 17:41:35;;;;;;;3.80;2.45;;;;;;;10.16;59.57;93807.47;6184870;23;20012;-85
2024/01/02 17:44:01;;;;;;;2.40;2.10;;;;;;;10.17;59.55;93803.88;6186475;23;20004;-85
2024/01/02 17:46:36;;;;;;;2.50;2.20;;;;;;;10.30;59.08;93794.38;6186254;23;20010;-85
2024/01/02 17:49:04;;;;;;;3.10;2.35;;;;;;;10.28;59.36;93791.19;6186334;23;20031;-85
2024/01/02 17:51:31;;;;;;;4.88;2.38;;;;;;;10.22;59.25;93794.66;6186303;23;20039;-86
2024/01/02 17:53:58;;;;;;;2.80;2.47;;;;;;;10.21;59.09;93780.88;6187023;23;20004;-86
2024/01/02 17:56:24;;;;;;;2.95;2.15;;;;;;;10.33;58.60;93786.22;6186170;23;20024;-85
2024/01/02 17:58:54;;;;;;;3.63;2.67;;;;;;;10.40;58.83;93776.56;6161690;23;20008;-85
2024/01/02 18:01:22;;;;;;;2.83;2.00;;;;;;;10.17;58.98;93764.09;6186081;23;20059;-86
2024/01/02 18:03:50;;;;;;;2.33;1.92;;;;;;;9.95;60.18;93761.03;6211480;23;20008;-85
2024/01/02 18:07:07;;;;;;;2.65;2.30;;;;;;;9.88;59.82;93763.69;6186015;23;20008;-85
2024/01/02 18:09:46;;;;;;;3.47;2.40;;;;;;;10.02;59.53;93764.41;6148584;23;20016;-86
2024/01/02 18:12:25;;;;;;;3.28;2.70;;;;;;;10.03;60.28;93755.59;6187144;23;20032;-86
2024/01/02 18:15:28;;;;;;;3.05;2.30;;;;;;;10.01;59.99;93747.22;6186351;23;20004;-86
2024/01/02 18:18:14;;;;;;;3.33;2.25;;;;;;;9.61;61.07;93739.66;6186769;23;20070;-86
2024/01/02 18:21:11;;;;;;;3.70;2.47;;;;;;;9.87;61.00;93733.53;6186450;23;20083;-86
2024/01/02 18:23:57;;;;;;;2.60;2.13;;;;;;;9.82;61.30;93724.75;6186222;23;20075;-85
2024/01/02 18:26:54;;;;;;;2.58;2.20;;;;;;;9.78;61.16;93719.97;6186475;23;20013;-85
2024/01/02 18:29:31;;;;;;;3.22;2.10;;;;;;;9.84;61.04;93717.56;6186587;23;20067;-85
2024/01/02 18:32:04;;;;;;;3.70;2.70;;;;;;;9.73;60.05;93696.47;6186273;23;20012;-85
2024/01/02 18:34:50;;;;;;;4.90;2.80;;;;;;;9.52;61.66;93707.16;6186032;23;20025;-86
2024/01/02 18:37:31;;;;;;;4.10;3.65;;;;;;;9.93;60.55;93700.72;6184580;23;20019;-86
2024/01/02 18:40:09;;;;;;;3.25;2.95;;;;;;;10.09;60.18;93697.63;6186584;23;20004;-85
2024/01/02 18:42:59;;;;;;;3.33;2.70;;;;;;;9.86;60.99;93690.41;6161864;23;20013;-86
2024/01/02 18:45:36;;;;;;;1.70;1.60;;;;;;;10.10;59.20;93686.19;6162791;23;20012;-85
2024/01/02 18:48:17;;;;;;;2.05;1.63;;;;;;;10.05;59.08;93683.47;6185714;23;20055;-85
2024/01/02 18:50:55;;;;;;;2.35;1.80;;;;;;;10.15;58.92;93683.00;6186804;23;20008;-85
2024/01/02 18:53:56;;;;;;;2.50;1.98;;;;;;;10.05;60.02;93678.28;6188393;23;20005;-85
2024/01/02 18:56:25;;;;;;;;;;;;;;;9.73;60.96;93665.31;6188113;23;20001;-85
2024/01/02 18:58:51;;;;;;;3.08;2.13;;;;;;;10.01;60.08;93674.47;6163258;23;19911;-85
2024/01/02 19:01:18;;;;;;;2.17;1.90;;;;;;;10.14;59.80;93678.78;6138431;23;20020;-86
2024/01/02 19:03:44;;;;;;;2.22;1.77;;;;;;;9.99;60.01;93668.69;6163611;23;20076;-85
2024/01/02 19:06:21;;;;;;;2.03;1.60;;;;;;;9.83;60.32;93651.06;6187436;23;20009;-85
2024/01/02 19:08:48;;;;;;;3.95;1.88;;;;;;;9.91;60.54;93666.38;6165309;23;20023;-86
2024/01/02 19:11:17;;;;;;;2.33;1.65;;;;;;;9.96;60.27;93646.56;6187711;23;20004;-85
2024/01/02 19:13:44;;;;;;;2.08;1.30;;;;;;;9.37;61.47;93651.16;6187665;23;20019;-85
2024/01/02 19:16:13;;;;;;;2.03;1.73;;;;;;;9.68;60.74;93638.38;6187267;23;20001;-85
2024/01/02 19:18:47;;;;;;;2.47;1.70;;;;;;;9.76;60.39;93618.13;6188019;23;20005;-85
2024/01/02 19:21:21;;;;;;;1.83;1.40;;;;;;;9.70;60.42;93613.00;6141201;23;20078;-85
2024/01/02 19:23:49;;;;;;;1.40;1.30;;;;;;;9.73;59.67;93600.41;6188039;23;20000;-86
2024/01/02 19:26:20;;;;;;;1.92;1.25;;;;;;;9.75;60.07;93613.97;6188243;23;20000;-85
2024/01/02 19:28:53;;;;;;;1.50;1.17;;;;;;;9.79;59.48;93617.72;6164441;23;20008;-85
2024/01/02 19:31:19;;;;;;;2.65;1.40;;;;;;;9.80;59.67;93618.50;6164721;23;20148;-85
2024/01/02 19:33:44;;;;;;;1.83;1.30;;;;;;;9.89;59.86;93629.44;6163678;23;20032;-85
2024/01/02 19:36:10;;;;;;;1.08;0.75;;;;;;;10.01;58.44;93613.94;6162869;23;20008;-86
2024/01/02 19:38:36;;;;;;;1.73;0.80;;;;;;;9.95;58.45;93620.78;6138342;23;20013;-85
2024/01/02 19:41:02;;;;;;;1.20;0.90;;;;;;;10.08;58.86;93628.47;6163324;23;20008;-85
2024/01/02 19:43:28;;;;;;;0.98;0.90;;;;;;;10.05;58.88;93610.72;6163666;23;20001;-86
2024/01/02 19:45:53;;;;;;;3.35;1.60;;;;;;;9.77;59.90;93629.34;6187264;23;20008;-85
2024/01/02 19:48:18;;;;;;;1.67;1.45;;;;;;;9.63;61.21;93627.81;6162841;23;20095;-85
2024/01/02 19:50:46;;;;;;;3.17;1.60;;;;;;;9.76;60.90;93632.94;6138574;23;20032;-85
2024/01/02 19:53:11;;;;;;;2.25;1.70;;;;;;;9.89;60.74;93629.44;6163550;23;20081;-85
2024/01/02 19:55:37;;;;;;;2.67;1.50;;;;;;;9.86;60.65;93628.06;6163371;23;20024;-86
2024/01/02 19:58:04;;;;;;;2.85;1.40;;;;;;;9.95;60.45;93624.19;6162430;23;20068;-85
2024/01/02 20:00:30;;;;;;;2.05;1.40;;;;;;;9.83;61.16;93622.50;6163089;23;20032;-85
2024/01/02 20:02:55;;;;;;;1.83;1.50;;;;;;;10.04;60.36;93640.31;6162440;23;20009;-85
2024/01/02 20:05:32;;;;;;;1.70;1.40;;;;;;;9.95;60.51;93637.16;6187988;23;20028;-85
2024/01/02 20:08:22;;;;;;;1.95;1.52;;;;;;;9.79;61.17;93635.09;6187851;23;20010;-85
2024/01/02 20:10:51;;;;;;;2.70;1.85;;;;;;;10.02;60.91;93650.13;6187544;23;20012;-85
2024/01/02 20:13:24;;;;;;;2.33;1.80;;;;;;;9.97;61.24;93658.53;6187185;23;20091;-86
2024/01/02 20:15:51;;;;;;;1.73;1.50;;;;;;;10.04;60.84;93671.47;6187373;23;20004;-85
2024/01/02 20:18:16;;;;;;;2.33;1.80;;;;;;;10.04;61.03;93673.28;6163030;23;20015;-85
2024/01/02 20:20:42;;;;;;;2.38;1.65;;;;;;;10.16;60.44;93687.16;6187567;23;20008;-85
2024/01/02 20:23:13;;;;;;;2.63;2.05;;;;;;;10.07;61.17;93673.66;6187425;23;20015;-86
2024/01/02 20:25:45;;;;;;;3.88;1.80;;;;;;;10.09;60.60;93658.66;6185720;23;20067;-85
2024/01/02 20:28:14;;;;;;;2.92;1.88;;;;;;;9.78;62.00;93668.03;6186255;23;20004;-85
2024/01/02 20:30:42;;;;;;;2.45;1.60;;;;;;;9.91;61.08;93674.16;6163474;23;20096;-85
2024/01/02 20:33:34;;;;;;;2.25;1.45;;;;;;;9.55;60.91;93693.75;6163813;23;20067;-85
2024/01/02 20:36:00;;;;;;;2.92;1.20;;;;;;;10.01;59.62;93684.09;6187032;23;20012;-85
2024/01/02 20:38:33;;;;;;;2.13;1.10;;;;;;;9.91;58.75;93659.38;6138464;23;20079;-85
2024/01/02 20:40:59;;;;;;;1.65;1.00;;;;;;;10.15;56.10;93657.78;6186994;23;20007;-85
2024/01/02 20:43:32;;;;;;;1.77;1.08;;;;;;;10.02;57.71;93681.28;6187696;23;20091;-85
2024/01/02 20:46:02;;;;;;;1.92;0.88;;;;;;;10.08;56.99;93685.63;6187238;23;20005;-86
2024/01/02 20:48:29;;;;;;;1.35;1.00;;;;;;;10.16;56.78;93664.56;6162811;23;20023;-85
2024/01/02 20:51:01;;;;;;;1.20;1.10;;;;;;;10.26;56.17;93673.69;6186558;23;20009;-86
2024/01/02 20:53:43;;;;;;;1.20;1.00;;;;;;;10.21;56.01;93660.56;6187052;23;20004;-85
2024/01/02 20:56:46;;;;;;;1.48;1.10;;;;;;;10.01;57.16;93660.72;6186909;23;20015;-85